| time (UTC) | temp F | wind direction | speed knots | gust knots | rain 1hr in | rain 24hr in | rain mn in | humidity % | barometer mb |
| 20260905001558 | 78 | 0 | 0.0 | 0.0 | 0.00 | 0.00 | 0.00 | 72 | 1015.6 |
| 20260905000105 | 78 | 0 | 0.0 | 0.0 | 0.00 | 0.00 | 0.00 | 72 | 1016.2 |
| 20260904234548 | 78 | 121 | 0.0 | 6.1 | 0.00 | 0.00 | 0.00 | 71 | 1016.3 |
| 20260904233103 | 79 | 124 | 0.9 | 6.1 | 0.00 | 0.00 | 0.00 | 69 | 1016.6 |
| 20260904231602 | 80 | 82 | 2.6 | 7.8 | 0.00 | 0.00 | 0.00 | 62 | 1016.0 |
| 20260904230108 | 81 | 36 | 0.9 | 9.6 | 0.00 | 0.00 | 0.00 | 62 | 1015.8 |
| 20260904224548 | 82 | 111 | 6.1 | 13.9 | 0.00 | 0.00 | 0.00 | 59 | 1016.3 |
| 20260904223057 | 86 | 0 | 0.0 | 8.7 | 0.00 | 0.00 | 0.00 | 60 | 1016.3 |
| 20260904221554 | 91 | 115 | 0.9 | 6.1 | 0.00 | 0.00 | 0.00 | 53 | 1015.8 |
| 20260904220052 | 93 | 0 | 0.0 | 0.0 | 0.00 | 0.00 | 0.00 | 52 | 1014.9 |
| 20260904214550 | 94 | 0 | 0.0 | 3.5 | 0.00 | 0.00 | 0.00 | 51 | 1014.4 |
| 20260904213056 | 94 | 0 | 0.0 | 2.6 | 0.00 | 0.00 | 0.00 | 50 | 1014.2 |
| 20260904211552 | 95 | 0 | 0.0 | 0.9 | 0.00 | 0.00 | 0.00 | 49 | 1014.5 |
| 20260904210048 | 96 | 0 | 0.9 | 5.2 | 0.00 | 0.00 | 0.00 | 46 | 1014.6 |
| 20260904204554 | 97 | 0 | 1.7 | 7.8 | 0.00 | 0.00 | 0.00 | 44 | 1014.5 |
| 20260904203053 | 98 | 150 | 0.0 | 7.0 | 0.00 | 0.00 | 0.00 | 46 | 1014.4 |
| 20260904201558 | 97 | 0 | 0.0 | 3.5 | 0.00 | 0.00 | 0.00 | 47 | 1014.3 |
| 20260904200110 | 98 | 0 | 0.9 | 5.2 | 0.00 | 0.00 | 0.00 | 42 | 1014.6 |
| 20260904194556 | 98 | 0 | 0.0 | 2.6 | 0.00 | 0.00 | 0.00 | 44 | 1014.9 |
| 20260904193053 | 98 | 263 | 0.0 | 3.5 | 0.00 | 0.00 | 0.00 | 41 | 1015.2 |
| 20260904191550 | 98 | 0 | 0.0 | 5.2 | 0.00 | 0.00 | 0.00 | 41 | 1015.6 |
| 20260904190057 | 97 | 0 | 0.0 | 2.6 | 0.00 | 0.00 | 0.00 | 44 | 1015.7 |
| 20260904184552 | 96 | 0 | 0.0 | 3.5 | 0.00 | 0.00 | 0.00 | 47 | 1016.0 |
| 20260904183107 | 97 | 0 | 0.0 | 0.0 | 0.00 | 0.00 | 0.00 | 47 | 1016.2 |
| 20260904181600 | 96 | 0 | 0.0 | 1.7 | 0.00 | 0.00 | 0.00 | 48 | 1016.3 |
| 20260904180057 | 96 | 336 | 0.0 | 2.6 | 0.00 | 0.00 | 0.00 | 47 | 1016.5 |
| 20260904174601 | 96 | 0 | 0.0 | 4.3 | 0.00 | 0.00 | 0.00 | 49 | 1016.7 |
| 20260904173102 | 96 | 0 | 0.0 | 3.5 | 0.00 | 0.00 | 0.00 | 51 | 1016.9 |
| 20260904171608 | 95 | 240 | 0.9 | 4.3 | 0.00 | 0.00 | 0.00 | 50 | 1017.1 |
| 20260904170051 | 94 | 0 | 0.0 | 1.7 | 0.00 | 0.00 | 0.00 | 55 | 1017.1 |
| 20260904164600 | 95 | 0 | 0.0 | 0.0 | 0.00 | 0.00 | 0.00 | 55 | 1017.3 |
| 20260904163100 | 93 | 0 | 0.0 | 0.9 | 0.00 | 0.00 | 0.00 | 55 | 1017.5 |
| 20260904161554 | 92 | 0 | 0.0 | 1.7 | 0.00 | 0.00 | 0.00 | 58 | 1017.8 |
| 20260904160054 | 92 | 0 | 0.0 | 4.3 | 0.00 | 0.00 | 0.00 | 57 | 1017.9 |
| 20260904154550 | 90 | 0 | 0.0 | 0.0 | 0.00 | 0.00 | 0.00 | 60 | 1018.0 |
| 20260904153105 | 91 | 220 | 0.0 | 1.7 | 0.00 | 0.00 | 0.00 | 63 | 1018.1 |
| 20260904151555 | 90 | 0 | 0.0 | 1.7 | 0.00 | 0.00 | 0.00 | 63 | 1018.1 |
| 20260904150051 | 89 | 258 | 0.0 | 4.3 | 0.00 | 0.00 | 0.00 | 65 | 1018.2 |
| 20260904144549 | 89 | 0 | 0.0 | 2.6 | 0.00 | 0.00 | 0.00 | 67 | 1018.2 |
| 20260904143045 | 86 | 0 | 0.0 | 3.5 | 0.00 | 0.00 | 0.00 | 68 | 1018.3 |
| 20260904141555 | 85 | 200 | 0.9 | 7.0 | 0.00 | 0.00 | 0.00 | 70 | 1018.3 |
| 20260904140052 | 84 | 0 | 0.0 | 3.5 | 0.00 | 0.00 | 0.00 | 71 | 1018.3 |
| 20260904134557 | 84 | 0 | 0.0 | 0.9 | 0.00 | 0.00 | 0.00 | 73 | 1018.1 |
| 20260904133053 | 82 | 0 | 0.0 | 2.6 | 0.00 | 0.00 | 0.00 | 74 | 1018.4 |
| 20260904131600 | 81 | 0 | 0.0 | 0.0 | 0.00 | 0.00 | 0.00 | 77 | 1018.4 |
| 20260904130049 | 80 | 0 | 0.0 | 1.7 | 0.00 | 0.00 | 0.00 | 78 | 1018.5 |
| 20260904124554 | 79 | 0 | 0.0 | 4.3 | 0.00 | 0.00 | 0.00 | 79 | 1018.4 |
| 20260904123054 | 79 | 0 | 0.0 | 3.5 | 0.00 | 0.00 | 0.00 | 81 | 1018.4 |
| 20260904121549 | 77 | 0 | 0.0 | 4.3 | 0.00 | 0.00 | 0.00 | 83 | 1018.3 |
| 20260904120050 | 76 | 0 | 0.0 | 3.5 | 0.00 | 0.00 | 0.00 | 84 | 1018.2 |
| 20260904114603 | 75 | 0 | 0.0 | 0.0 | 0.00 | 0.00 | 0.00 | 86 | 1018.2 |
| 20260904113054 | 75 | 0 | 0.0 | 0.0 | 0.00 | 0.00 | 0.00 | 85 | 1018.0 |
| 20260904111552 | 75 | 0 | 0.0 | 1.7 | 0.00 | 0.00 | 0.00 | 85 | 1017.9 |
| 20260904110051 | 75 | 0 | 0.0 | 3.5 | 0.00 | 0.00 | 0.00 | 85 | 1017.8 |
| 20260904104559 | 75 | 233 | 0.0 | 2.6 | 0.00 | 0.00 | 0.00 | 86 | 1017.8 |
| 20260904103057 | 75 | 0 | 0.0 | 0.9 | 0.00 | 0.00 | 0.00 | 85 | 1017.6 |
| 20260904101555 | 75 | 0 | 0.0 | 0.0 | 0.00 | 0.00 | 0.00 | 84 | 1017.7 |
| 20260904100059 | 76 | 0 | 0.0 | 1.7 | 0.00 | 0.00 | 0.00 | 84 | 1017.6 |
| 20260904094605 | 76 | 0 | 0.0 | 0.9 | 0.00 | 0.00 | 0.00 | 83 | 1017.5 |
| 20260904093052 | 76 | 0 | 0.0 | 1.7 | 0.00 | 0.00 | 0.00 | 82 | 1017.4 |
| 20260904091559 | 77 | 0 | 0.0 | 0.9 | 0.00 | 0.00 | 0.00 | 81 | 1017.3 |
| 20260904090057 | 77 | 0 | 0.0 | 2.6 | 0.00 | 0.00 | 0.00 | 81 | 1017.1 |
| 20260904084554 | 77 | 223 | 0.0 | 4.3 | 0.00 | 0.00 | 0.00 | 80 | 1016.8 |
| 20260904083050 | 78 | 226 | 0.9 | 5.2 | 0.00 | 0.00 | 0.00 | 79 | 1016.7 |
| 20260904081555 | 78 | 221 | 0.0 | 5.2 | 0.00 | 0.00 | 0.00 | 78 | 1016.5 |
| 20260904080053 | 78 | 0 | 0.0 | 4.3 | 0.00 | 0.00 | 0.00 | 78 | 1016.7 |
| 20260904074551 | 79 | 0 | 0.9 | 7.0 | 0.00 | 0.00 | 0.00 | 77 | 1016.8 |
| 20260904073051 | 79 | 239 | 0.9 | 7.0 | 0.00 | 0.00 | 0.00 | 77 | 1016.9 |
| 20260904071556 | 79 | 0 | 0.9 | 4.3 | 0.00 | 0.00 | 0.00 | 76 | 1017.1 |
| 20260904070055 | 80 | 215 | 0.0 | 5.2 | 0.00 | 0.00 | 0.00 | 75 | 1017.2 |
| 20260904064553 | 80 | 0 | 0.0 | 5.2 | 0.00 | 0.00 | 0.00 | 75 | 1017.4 |
| 20260904063100 | 80 | 0 | 0.0 | 2.6 | 0.00 | 0.00 | 0.00 | 75 | 1017.7 |
| 20260904061555 | 80 | 0 | 0.9 | 4.3 | 0.00 | 0.00 | 0.00 | 75 | 1017.8 |
| 20260904060104 | 81 | 0 | 0.9 | 3.5 | 0.00 | 0.00 | 0.00 | 75 | 1018.0 |
| 20260904054612 | 81 | 218 | 0.0 | 4.3 | 0.00 | 0.00 | 0.00 | 75 | 1018.2 |
| 20260904053050 | 81 | 0 | 0.0 | 3.5 | 0.00 | 0.00 | 0.00 | 75 | 1018.2 |
| 20260904051556 | 82 | 0 | 0.0 | 1.7 | 0.00 | 0.00 | 0.00 | 73 | 1018.3 |
| 20260904050056 | 82 | 227 | 0.0 | 2.6 | 0.00 | 0.00 | 0.00 | 73 | 1018.4 |
| 20260904044553 | 82 | 0 | 0.0 | 3.5 | 0.00 | 0.00 | 0.00 | 73 | 1018.5 |
| 20260904043054 | 82 | 0 | 0.0 | 0.9 | 0.00 | 0.00 | 0.00 | 73 | 1018.4 |
| 20260904041548 | 81 | 0 | 0.0 | 0.0 | 0.00 | 0.00 | 0.00 | 73 | 1018.2 |
| 20260904040057 | 82 | 0 | 0.0 | 0.0 | 0.00 | 0.00 | 0.00 | 74 | 1018.0 |
| 20260904034551 | 83 | 0 | 0.0 | 0.9 | 0.00 | 0.00 | 0.00 | 70 | 1018.0 |
| 20260904033058 | 83 | 0 | 0.0 | 2.6 | 0.00 | 0.00 | 0.00 | 70 | 1018.1 |
| 20260904031550 | 83 | 0 | 0.0 | 0.0 | 0.00 | 0.00 | 0.00 | 71 | 1018.1 |
| 20260904030055 | 84 | 0 | 0.0 | 0.9 | 0.00 | 0.00 | 0.00 | 69 | 1018.1 |
| 20260904024558 | 84 | 0 | 0.0 | 0.0 | 0.00 | 0.00 | 0.00 | 68 | 1018.1 |
| 20260904023052 | 84 | 0 | 0.0 | 0.0 | 0.00 | 0.00 | 0.00 | 68 | 1018.2 |
| 20260904021548 | 84 | 0 | 0.0 | 0.0 | 0.00 | 0.00 | 0.00 | 68 | 1018.2 |
| 20260904020045 | 84 | 0 | 0.0 | 0.0 | 0.00 | 0.00 | 0.00 | 68 | 1018.3 |
| 20260904014616 | 85 | 0 | 0.0 | 0.9 | 0.00 | 0.00 | 0.00 | 66 | 1018.1 |
| 20260904013109 | 86 | 0 | 0.0 | 0.0 | 0.00 | 0.00 | 0.00 | 65 | 1018.1 |
| 20260904011553 | 86 | 0 | 0.0 | 0.0 | 0.00 | 0.00 | 0.00 | 63 | 1017.7 |
| 20260904010052 | 87 | 0 | 0.0 | 0.9 | 0.00 | 0.00 | 0.00 | 61 | 1017.6 |
| 20260904004554 | 88 | 0 | 0.0 | 0.0 | 0.00 | 0.00 | 0.00 | 60 | 1017.4 |
| 20260904003101 | 88 | 0 | 0.0 | 0.0 | 0.00 | 0.00 | 0.00 | 59 | 1017.2 |